Tiempo atmosférico en la estación meteorológica de Aranjuez, Madrid (540 m.)



Fecha
DESCASC
Temp. máxima en grados centígrados (hora)
DESCASC
Temp. mínima en grados centígrados (hora)
DESCASC
Temp. media en grados centígrados
DESCASC
Racha de viento máxima en m/sg (hora)
DESCASC
Velocidad máxima media en intervalos de 10 minutos(hora)
DESCASC
Precipitaciones diarias en mm
DESCASC
Precipitaciones de 00:00 a 06:00 en mm
DESCASC
Precipitaciones de 06:00 a 12:00 en mm
DESCASC
Precipitaciones de 12:00 a 18:00 en mm
DESCASC
Precipitaciones de 18:00 a 24:00 en mm
DESCASC
10-07-2020 34.4 (18:40) 16.8 (06:20) 25.6 5.83 (18:20) 3.61 (09:30) 0 0 0 0 0
09-07-2020 35.2 (15:50) 18.9 (23:59) 27.1 15.28 (20:00) 8.61 (20:30) 0.7 0 0 0 0.7
08-07-2020 36.6 (13:50) 21.5 (03:30) 29 15.28 (19:50) 7.78 (17:50) 0.7 0 0.7 0 0
07-07-2020 39.2 (17:50) 20.3 (06:20) 29.8 8.89 (18:20) 4.17 (20:10) 0 0 0 0 0
06-07-2020 38.2 (17:50) 16.6 (00:00) 27.4 8.61 (23:00) 3.89 (23:10) 0 0 0 0 0
05-07-2020 37.2 (18:30) 16.5 (00:00) 26.9 5.56 (19:40) 2.22 (16:00) 0 0 0 0 0
04-07-2020 35.5 (19:00) 15.4 (00:00) 25.4 5.28 (11:40) 2.78 (10:00) 0 0 0 0 0
03-07-2020 33.3 (18:10) 16.1 (07:20) 24.7 5.83 (16:50) 3.33 (07:00) 0 0 0 0 0
02-07-2020 33.4 (17:20) 16.3 (00:00) 24.9 11.11 (16:20) 5.83 (20:20) 0 0 0 0 0
01-07-2020 34.4 (17:30) 17.6 (00:00) 26 9.44 (16:30) 3.89 (16:50) 0 0 0 0 0
30-06-2020 38.4 (18:00) 18.7 (00:00) 28.6 8.61 (15:10) 3.89 (21:50) 0 0 0 0 0
29-06-2020 37 (18:50) 16.8 (00:00) 26.9 6.39 (16:00) 2.78 (14:00) 0 0 0 0 0
28-06-2020 35.2 (18:00) 15.9 (00:00) 25.6 6.67 (17:20) 2.78 (20:50) 0 0 0 0 0
27-06-2020 32.1 (19:10) 13.5 (00:00) 22.8 11.39 (14:10) 3.89 (17:20) 0 0 0 0 0
26-06-2020 32.3 (16:20) 19.6 (00:00) 25.9 10 (18:50) 4.17 (21:00) 0 0 0 0 0
25-06-2020 35.9 (16:30) 20.6 (00:00) 28.3 9.17 (02:30) 6.11 (02:30) 0 0 0 0 0
24-06-2020 34.9 (18:20) 22 (00:00) 28.5 10 (15:30) 6.39 (13:40) 0.2 0 0 0.2 0
23-06-2020 37.7 (17:10) 19.7 (00:00) 28.7 7.22 (02:10) 4.72 (02:10) 0 0 0 0 0
22-06-2020 36.6 (18:50) 15.6 (00:00) 26.1 6.67 (14:10) 3.33 (11:50) 0 0 0 0 0
21-06-2020 35 (19:30) 13 (00:00) 24 6.11 (16:00) 3.33 (19:00) 0 0 0 0 0
20-06-2020 33.1 (17:30) 11.8 (00:00) 22.4 7.78 (17:00) 3.89 (19:40) 0 0 0 0 0
19-06-2020 31.5 (18:00) 13.5 (00:00) 22.5 8.33 (15:30) 3.33 (18:40) 0 0 0 0 0
18-06-2020 29.4 (17:20) 10.2 (00:00) 19.8 8.06 (18:20) 3.33 (21:30) 0 0 0 0 0
17-06-2020 27.3 (17:50) 11.4 (00:00) 19.3 7.78 (15:20) 3.33 (16:20) 0 0 0 0 0
16-06-2020 27.5 (16:30) 11.5 (00:00) 19.5 12.5 (20:10) 4.72 (19:30) 3.1 0 0 0 3.1
15-06-2020 28.9 (18:10) 9.7 (00:00) 19.3 8.61 (19:20) 4.17 (18:40) 0 0 0 0 0

Gráficas

Temp. máximas Temp. mínimas Temp. medias Precipitaciones Rachas de viento máximas Velocidades máximas media en intervalos de 10 minutos

Datos horarios

Fecha y hora oficial Temperatura (ºC) Velocidad del viento (km/h) Dirección del viento Racha (km/h) Dirección de racha Precipitación (mm) Presión (hPa) Tendencia (hPa) Humedad (%)
2020-07-14 23:00:00 22.7 19 Sudeste 37 Sudeste 0 -- -- 56
2020-07-14 22:00:00 23.8 23 Sudeste 46 Sudeste 0 -- -- 53
2020-07-14 21:00:00 26 30 Sudeste 57 Sudeste 0 -- -- 49
2020-07-14 20:00:00 34 6 Nordeste 22 Este 0 -- -- 23
2020-07-14 19:00:00 34.3 5 Nordeste 27 Nordeste 0 -- -- 25
2020-07-14 18:00:00 34.7 10 Norte 23 Norte 0 -- -- 27
2020-07-14 17:00:00 34.1 8 Norte 24 Noroeste 0 -- -- 32
2020-07-14 16:00:00 33.3 7 Noroeste 21 Nordeste 0 -- -- 35
2020-07-14 15:00:00 32.2 4 Sudeste 19 Este 0 -- -- 38
2020-07-14 14:00:00 31.3 8 Este 18 Nordeste 0 -- -- 42
2020-07-14 13:00:00 29.8 8 Nordeste 24 Este 0 -- -- 46
2020-07-14 12:00:00 28.2 8 Sudeste 18 Este 0 -- -- 49
2020-07-14 11:00:00 26.6 2 Este 15 Nordeste 0 -- -- 51
2020-07-14 10:00:00 23.9 7 Norte 21 Nordeste 0 -- -- 53
2020-07-14 09:00:00 21.6 10 Nordeste 21 Nordeste 0 -- -- 55
2020-07-14 08:00:00 20.2 3 Sur 18 Nordeste 0 -- -- 60
2020-07-14 07:00:00 20.2 9 Nordeste 15 Nordeste 0 -- -- 61
2020-07-14 06:00:00 21.1 8 Nordeste 15 Nordeste 0 -- -- 61
2020-07-14 05:00:00 22.3 5 Nordeste 11 Nordeste 0 -- -- 59
2020-07-14 04:00:00 23.7 8 Este 18 Este 0 -- -- 54
2020-07-14 03:00:00 24.4 6 Este 15 Nordeste 0 -- -- 53
2020-07-14 02:00:00 25 7 Norte 16 Nordeste 0 -- -- 46
2020-07-14 01:00:00 26.2 3 Este 16 Norte 0 -- -- 43
2020-07-14 00:00:00 27.7 5 Sudeste 14 Este 0 -- -- 39
2020-07-13 23:00:00 29.3 6 Nordeste 14 Nordeste 0 -- -- 36
2020-07-13 22:00:00 30.6 3 Nordeste 6 Nordeste 0 -- -- 34
2020-07-13 21:00:00 33.2 4 Nordeste 10 Este 0 -- -- 31
2020-07-13 20:00:00 34.8 2 Este 13 Nordeste 0 -- -- 30
2020-07-13 19:00:00 35.1 4 Norte 20 Nordeste 0 -- -- 30
2020-07-13 18:00:00 35 4 Este 24 Norte 0 -- -- 30
2020-07-13 17:00:00 34.6 5 Noroeste 22 Noroeste 0 -- -- 31
2020-07-13 16:00:00 34.2 6 Nordeste 24 Este 0 -- -- 34
2020-07-13 15:00:00 32.9 0 Calma 22 Este 0 -- -- 36
2020-07-13 14:00:00 31.6 9 Este 23 Este 0 -- -- 38
2020-07-13 13:00:00 30.8 9 Nordeste 23 Sudeste 0 -- -- 42
2020-07-13 12:00:00 29.5 7 Este 18 Nordeste 0 -- -- 45
2020-07-13 11:00:00 26.8 6 Sudeste 12 Sudeste 0 -- -- 52
2020-07-13 10:00:00 23.9 2 Sudoeste 6 Este 0 -- -- 62
2020-07-13 09:00:00 21.2 4 Este 10 Sudeste 0 -- -- 68
2020-07-13 08:00:00 18.4 0 Calma 6 Sudeste 0 -- -- 79
2020-07-13 07:00:00 17.4 4 Sudeste 8 Este 0 -- -- 79
2020-07-13 06:00:00 18 0 Calma 11 Este 0 -- -- 76
2020-07-13 05:00:00 18.8 7 Este 12 Sudeste 0 -- -- 76
2020-07-13 04:00:00 19.3 5 Este 9 Este 0 -- -- 74
2020-07-13 03:00:00 19.9 7 Este 12 Este 0 -- -- 73
2020-07-13 02:00:00 20.5 5 Sudeste 11 Sudeste 0 -- -- 72
2020-07-13 01:00:00 21.7 3 Nordeste 12 Este 0 -- -- 67
2020-07-13 00:00:00 22.3 6 Nordeste 19 Nordeste 0 -- -- 66
2020-07-12 23:00:00 23.5 9 Nordeste 25 Este 0 -- -- 62
2020-07-12 22:00:00 25.6 18 Este 43 Este 0 -- -- 58
2020-07-12 21:00:00 26.6 24 Sudeste 35 Sudeste 0 -- -- 55
2020-07-12 20:00:00 27.2 20 Sudeste 32 Sudeste 0 -- -- 52
2020-07-12 19:00:00 25.8 13 Este 36 Este 0.2 -- -- 56
2020-07-12 18:00:00 30.4 16 Sudeste 46 Sudeste 0 -- -- 39
2020-07-12 17:00:00 33.3 14 Sudeste 36 Sudeste 0 -- -- 35
2020-07-12 16:00:00 35.8 9 Norte 22 Norte 0 -- -- 32
2020-07-12 15:00:00 34.5 3 Norte 20 Nordeste 0 -- -- 34
2020-07-12 14:00:00 33.8 9 Norte 22 Nordeste 0 -- -- 38
2020-07-12 13:00:00 33.3 6 Este 26 Sudeste 0 -- -- 39
2020-07-12 12:00:00 30.7 15 Este 31 Sudeste 0 -- -- 45
2020-07-12 11:00:00 26.9 21 Sudeste 29 Sudeste 0 -- -- 56
2020-07-12 10:00:00 24.5 14 Sudeste 21 Sudeste 0 -- -- 65
2020-07-12 09:00:00 21.6 4 Este 21 Sudeste 0.8 -- -- 73
2020-07-12 08:00:00 23.2 5 Sudeste 17 Este 0 -- -- 59
2020-07-12 07:00:00 22.8 4 Este 22 Sudeste 0 -- -- 63
2020-07-12 06:00:00 23 15 Sudeste 30 Sudeste 0 -- -- 63
2020-07-12 05:00:00 23.8 20 Sudeste 32 Sudeste 0 -- -- 61
2020-07-12 04:00:00 24.1 15 Sudeste 50 Sudeste 0 -- -- 59
2020-07-12 03:00:00 24.7 24 Sudeste 51 Sudeste 0 -- -- 58
2020-07-12 02:00:00 25.4 28 Sudeste 44 Sudeste 0 -- -- 55
2020-07-12 01:00:00 26.7 24 Sudeste 42 Este 0 -- -- 50
2020-07-12 00:00:00 28.1 26 Este 46 Sudeste 0 -- -- 46
2020-07-11 23:00:00 29.6 23 Sudeste 39 Sudeste 0 -- -- 41
2020-07-11 22:00:00 31 21 Sudeste 40 Sudeste 0 -- -- 36
2020-07-11 21:00:00 33.3 19 Sudeste 40 Sudeste 0 -- -- 32
2020-07-11 20:00:00 36.4 13 Sudeste 28 Sudeste 0 -- -- 26
2020-07-11 19:00:00 37.1 5 Sur 26 Este 0 -- -- 26
2020-07-11 18:00:00 36.8 9 Sudeste 28 Sudeste 0 -- -- 26
2020-07-11 17:00:00 37.4 5 Sudeste 22 Sudeste 0 -- -- 26
2020-07-11 16:00:00 36.6 0 Calma 24 Sudeste 0 -- -- 28
2020-07-11 15:00:00 35.7 6 Sur 21 Sudeste 0 -- -- 30
2020-07-11 14:00:00 35.1 8 Sudeste 23 Sudeste 0 -- -- 32
2020-07-11 13:00:00 33.5 8 Sudeste 23 Sudeste 0 -- -- 33
2020-07-11 12:00:00 31.6 9 Este 22 Sudeste 0 -- -- 36
2020-07-11 11:00:00 29 11 Sudeste 24 Este 0 -- -- 41
2020-07-11 10:00:00 26.8 8 Sudeste 17 Sudeste 0 -- -- 45
2020-07-11 09:00:00 25.6 5 Este 16 Este 0 -- -- 49
2020-07-11 08:00:00 22.8 5 Nordeste 14 Nordeste 0 -- -- 53
2020-07-11 07:00:00 21.1 8 Nordeste 14 Nordeste 0 -- -- 54
2020-07-11 06:00:00 22.3 4 Nordeste 13 Nordeste 0 -- -- 51
2020-07-11 05:00:00 23.1 2 Este 21 Sudeste 0 -- -- 49
2020-07-11 04:00:00 23.4 15 Sudeste 22 Sudeste 0 -- -- 47
2020-07-11 03:00:00 23.6 14 Sudeste 20 Este 0 -- -- 47
2020-07-11 02:00:00 22.9 9 Este 18 Sudeste 0 -- -- 46
2020-07-11 01:00:00 23.2 11 Este 24 Sudeste 0 -- -- 43
2020-07-11 00:00:00 24 2 Sudeste 7 Este 0 -- -- 40
2020-07-10 23:00:00 25.3 0 Calma 6 Nordeste 0 -- -- 37
2020-07-10 22:00:00 28.5 0 Calma 9 Norte 0 -- -- 32
2020-07-10 21:00:00 32.8 3 Norte 12 Noroeste 0 -- -- 29
2020-07-10 20:00:00 33.8 7 Norte 18 Noroeste 0 -- -- 28
2020-07-10 19:00:00 33.7 6 Oeste 21 Nordeste 0 -- -- 29
2020-07-10 18:00:00 33.9 3 Noroeste 15 Norte 0 -- -- 30
2020-07-10 17:00:00 33.2 6 Sudoeste 17 Noroeste 0 -- -- 30
2020-07-10 16:00:00 31.9 3 Sudoeste 17 Sudeste 0 -- -- 31
2020-07-10 15:00:00 32.5 6 Este 18 Sudeste 0 -- -- 31
2020-07-10 14:00:00 31.2 5 Sudeste 18 Este 0 -- -- 33
2020-07-10 13:00:00 29.4 6 Sudeste 17 Sudeste 0 -- -- 39
2020-07-10 12:00:00 28 3 Sudeste 19 Sudeste 0 -- -- 46
2020-07-10 11:00:00 24.8 9 Sudeste 15 Sudeste 0 -- -- 54
2020-07-10 10:00:00 22.2 5 Sudeste 18 Sudeste 0 -- -- 67
2020-07-10 09:00:00 19.5 13 Este 18 Este 0 -- -- 77
2020-07-10 08:00:00 17.9 7 Este 11 Este 0 -- -- 79
2020-07-10 07:00:00 17.1 5 Este 8 Nordeste 0 -- -- 83
2020-07-10 06:00:00 16.9 5 Este 11 Sudeste 0 -- -- 82
2020-07-10 05:00:00 17.1 4 Este 10 Este 0 -- -- 81
2020-07-10 04:00:00 17.9 5 Este 13 Sudeste 0 -- -- 79
2020-07-10 03:00:00 18.6 3 Este 10 Este 0 -- -- 77
2020-07-10 02:00:00 18.4 0 Calma 7 Sudeste 0 -- -- 80
2020-07-10 01:00:00 18.6 3 Este 15 Sudeste 0 -- -- 79
2020-07-10 00:00:00 18.9 7 Sudeste 16 Sudeste 0 -- -- 75
2020-07-09 23:00:00 19.5 12 Este 32 Sudeste 0 -- -- 72
2020-07-09 22:00:00 19.9 8 Este 23 Nordeste 0.5 -- -- 76
2020-07-09 21:00:00 22.2 7 Este 55 Este 0.2 -- -- 58
2020-07-09 20:00:00 25.8 23 Nordeste 55 Este 0 -- -- 43
2020-07-09 19:00:00 33.5 15 Este 29 Sudeste 0 -- -- 31
2020-07-09 18:00:00 34.8 7 Este 22 Sudeste 0 -- -- 29
2020-07-09 17:00:00 33.6 14 Sudeste 44 Sudeste 0 -- -- 30
2020-07-09 16:00:00 33.9 5 Sudoeste 21 Sudeste 0 -- -- 29
2020-07-09 15:00:00 33.5 8 Sudeste 27 Sudeste 0 -- -- 31
2020-07-09 14:00:00 33 14 Este 27 Sudeste 0 -- -- 32
2020-07-09 13:00:00 32.4 5 Noroeste 15 Oeste 0 -- -- 34
2020-07-09 12:00:00 30.9 5 Sudoeste 12 Sudoeste 0 -- -- 38
2020-07-09 11:00:00 28.7 3 Oeste 9 Sudeste 0 -- -- 42
2020-07-09 10:00:00 27.4 6 Este 17 Este 0 -- -- 46
2020-07-09 09:00:00 24.6 9 Sudeste 21 Sudeste 0 -- -- 54
2020-07-09 08:00:00 22.2 14 Sudeste 21 Sudeste 0 -- -- 65
2020-07-09 07:00:00 22.2 15 Sudeste 24 Sudeste 0 -- -- 64
2020-07-09 06:00:00 22.9 13 Sudeste 21 Sudeste 0 -- -- 62
2020-07-09 05:00:00 23.7 12 Sudeste 29 Sudeste 0 -- -- 59
2020-07-09 04:00:00 24.7 11 Este -- -- -- -- -- 55
2020-07-09 03:00:00 25.5 12 Sudeste 25 Sudeste 0 -- -- 49
2020-07-09 02:00:00 26.2 9 Este 20 Este 0 -- -- 43
2020-07-09 01:00:00 25.9 13 Este 27 Sudeste 0 -- -- 42
2020-07-09 00:00:00 26.4 17 Este 42 Sudeste 0 -- -- 40
2020-07-08 23:00:00 27.9 25 Sudeste 45 Sudeste 0 -- -- 38
2020-07-08 22:00:00 28.6 21 Sudeste 54 Sudeste 0 -- -- 37
2020-07-08 21:00:00 30.6 24 Sudeste 48 Sudeste 0 -- -- 35
2020-07-08 20:00:00 31.5 27 Sudeste 55 Sudeste 0 -- -- 35
2020-07-08 19:00:00 34.1 27 Sudeste 54 Sudeste 0 -- -- 32
2020-07-08 18:00:00 34.1 27 Sudeste 52 Sudeste 0 -- -- 32
2020-07-08 17:00:00 34.1 19 Sudeste 38 Sudeste 0 -- -- 32
2020-07-08 16:00:00 36.3 15 Sudeste 27 Sudeste 0 -- -- 30
2020-07-08 15:00:00 34.8 6 Sur 36 Sudeste 0 -- -- 31
2020-07-08 14:00:00 36.1 21 Sudeste 36 Sudeste 0 -- -- 31
2020-07-08 13:00:00 33.3 17 Sudeste 27 Sudeste 0 -- -- 36
2020-07-08 12:00:00 32.6 19 Sudeste 42 Este 0 -- -- 39
2020-07-08 11:00:00 29.2 20 Sudeste 33 Sudeste 0.1 -- -- 46
2020-07-08 10:00:00 24.5 4 Norte 27 Este 0 -- -- 60
2020-07-08 09:00:00 23.5 2 Sudeste 35 Oeste 0.6 -- -- 62
2020-07-08 08:00:00 23.2 3 Sudoeste 22 Oeste 0 -- -- 57
2020-07-08 07:00:00 23.8 11 Sudeste 40 Este 0 -- -- 52
2020-07-08 06:00:00 24.4 20 Sudeste 31 Sudeste 0 -- -- 51
2020-07-08 05:00:00 23.8 9 Este 18 Sudeste 0 -- -- 43
2020-07-08 04:00:00 22.2 15 Este 28 Sudeste 0 -- -- 40
2020-07-08 03:00:00 22.1 3 Este 6 Sudeste 0 -- -- 39
2020-07-08 02:00:00 22.2 3 Norte 5 Norte 0 -- -- 37
2020-07-08 01:00:00 24.1 2 Norte 6 Noroeste 0 -- -- 35
2020-07-08 00:00:00 26 3 Sur 8 Noroeste 0 -- -- 33
2020-07-07 23:00:00 27.9 3 Noroeste 10 Noroeste 0 -- -- 29
2020-07-07 22:00:00 33.2 6 Noroeste 18 Noroeste 0 -- -- 26
2020-07-07 21:00:00 36.5 12 Oeste 29 Oeste 0 -- -- 24
2020-07-07 20:00:00 37.8 11 Oeste 30 Oeste 0 -- -- 25
2020-07-07 19:00:00 38.4 10 Oeste 32 Noroeste 0 -- -- 25
2020-07-07 18:00:00 38.9 10 Oeste 29 Sudoeste 0 -- -- 25
2020-07-07 17:00:00 38.3 8 Sudoeste 26 Sudoeste 0 -- -- 28
2020-07-07 16:00:00 37.7 8 Oeste 23 Oeste 0 -- -- 28
2020-07-07 15:00:00 36.7 8 Sudoeste 23 Sudoeste 0 -- -- 29
2020-07-07 14:00:00 36.1 0 Calma 13 Este 0 -- -- 34
2020-07-07 13:00:00 34.4 3 Sur 14 Este 0 -- -- 36
2020-07-07 12:00:00 32.5 6 Este 15 Este 0 -- -- 39
2020-07-07 11:00:00 30.4 6 Sudeste 13 Sudeste 0 -- -- 42
2020-07-07 10:00:00 27.4 5 Sudeste 10 Sudeste 0 -- -- 47
2020-07-07 09:00:00 25.1 4 Nordeste 12 Este 0 -- -- 49
2020-07-07 08:00:00 22.4 0 Calma 9 Este 0 -- -- 53
2020-07-07 07:00:00 20.9 2 Nordeste 9 Nordeste 0 -- -- 55
2020-07-07 06:00:00 21.1 3 Norte 9 Nordeste 0 -- -- 53
2020-07-07 05:00:00 22.8 3 Nordeste 7 Este 0 -- -- 50
2020-07-07 04:00:00 24.6 3 Nordeste 10 Sudeste 0 -- -- 46
2020-07-07 03:00:00 25.5 5 Este 13 Sudeste 0 -- -- 43
2020-07-07 02:00:00 26.9 3 Este 12 Nordeste 0 -- -- 41
2020-07-07 01:00:00 28.6 5 Este 23 Nordeste 0 -- -- 39
2020-07-07 00:00:00 30.3 11 Nordeste 28 Nordeste 0 -- -- 38
2020-07-06 23:00:00 32 13 Nordeste 31 Nordeste 0 -- -- 36
2020-07-06 22:00:00 31.3 0 Calma 4 Oeste 0 -- -- 32
2020-07-06 21:00:00 35.5 3 Oeste 7 Sudoeste 0 -- -- 29
2020-07-06 20:00:00 37.1 3 Sur 12 Sudoeste 0 -- -- 29
2020-07-06 19:00:00 37.8 2 Norte 19 Noroeste 0 -- -- 28
2020-07-06 18:00:00 37.8 4 Oeste 17 Noroeste 0 -- -- 28
2020-07-06 17:00:00 37.8 6 Noroeste 21 Nordeste 0 -- -- 29
2020-07-06 16:00:00 37.5 8 Nordeste 19 Noroeste 0 -- -- 29
2020-07-06 15:00:00 36.6 6 Norte 21 Norte 0 -- -- 31
2020-07-06 14:00:00 35.8 7 Nordeste 17 Nordeste 0 -- -- 32
2020-07-06 13:00:00 34.4 3 Este 10 Norte 0 -- -- 35
2020-07-06 12:00:00 32 4 Sur 9 Sudeste 0 -- -- 40
2020-07-06 11:00:00 29.7 3 Sudeste 10 Sudeste 0 -- -- 43
2020-07-06 10:00:00 26.8 4 Sur 10 Sudeste 0 -- -- 48
2020-07-06 09:00:00 23.1 4 Sudeste 7 Sudeste 0 -- -- 51
2020-07-06 08:00:00 19.3 0 Calma 3 Este 0 -- -- 57
2020-07-06 07:00:00 16.8 3 Norte 6 Norte 0 -- -- 57
2020-07-06 06:00:00 18.2 4 Este 7 Sudeste 0 -- -- 50
2020-07-06 05:00:00 18.9 0 Calma 6 Este 0 -- -- 47
2020-07-06 04:00:00 20 4 Norte 18 Este 0 -- -- 41
2020-07-06 03:00:00 21.2 7 Este 12 Este 0 -- -- 41
2020-07-06 02:00:00 22.6 3 Nordeste 11 Norte 0 -- -- 38
2020-07-06 01:00:00 24 3 Sudeste 20 Noroeste 0 -- -- 37
2020-07-06 00:00:00 23.3 0 Calma 6 Este 0 -- -- 35
2020-07-05 23:00:00 25 3 Norte 4 Norte 0 -- -- 33
2020-07-05 22:00:00 29 0 Calma 4 Sudeste 0 -- -- 29
2020-07-05 21:00:00 36 3 Sudeste 7 Noroeste 0 -- -- 26
2020-07-05 20:00:00 36.5 2 Oeste 20 Sudoeste 0 -- -- 25
2020-07-05 19:00:00 36.6 6 Sudoeste 17 Sudoeste 0 -- -- 26
2020-07-05 18:00:00 36.9 8 Oeste 18 Sur 0 -- -- 27
2020-07-05 17:00:00 36.5 6 Sur 18 Noroeste 0 -- -- 27
2020-07-05 16:00:00 36.1 8 Oeste 17 Noroeste 0 -- -- 26
2020-07-05 15:00:00 35.3 3 Sudeste 14 Sur 0 -- -- 30
2020-07-05 14:00:00 33.7 4 Sudoeste 15 Sudoeste 0 -- -- 35
2020-07-05 13:00:00 32.8 6 Sudeste 17 Sudeste 0 -- -- 41
2020-07-05 12:00:00 30.5 6 Sudeste 19 Sudeste 0 -- -- 45
2020-07-05 11:00:00 28.2 7 Sudeste 14 Sudeste 0 -- -- 45
2020-07-05 10:00:00 25.9 4 Sudeste 8 Sudeste 0 -- -- 42
2020-07-05 09:00:00 22 2 Sur 8 Este 0 -- -- 46
2020-07-05 08:00:00 19.2 5 Este 7 Este 0 -- -- 48
2020-07-05 07:00:00 17 5 Este 8 Sudeste 0 -- -- 47
2020-07-05 06:00:00 16.8 0 Calma 6 Este 0 -- -- 45
2020-07-05 05:00:00 17.6 0 Calma 11 Sudoeste 0 -- -- 41
2020-07-05 04:00:00 18 3 Noroeste 7 Sudeste 0 -- -- 38
2020-07-05 03:00:00 21.3 7 Este 14 Este 0 -- -- 34
2020-07-05 02:00:00 20.7 3 Sudeste 9 Sudeste 0 -- -- 33
2020-07-05 01:00:00 22.6 4 Sudeste 15 Sudeste 0 -- -- 30
2020-07-05 00:00:00 24.6 6 Este 9 Este 0 -- -- 29
2020-07-04 23:00:00 26.4 7 Este 9 Este 0 -- -- 28
2020-07-04 22:00:00 29.9 4 Nordeste 8 Nordeste 0 -- -- 26
2020-07-04 21:00:00 34.2 3 Este 10 Noroeste 0 -- -- 25
2020-07-04 20:00:00 35 4 Noroeste 14 Noroeste 0 -- -- 25
2020-07-04 19:00:00 35.3 3 Noroeste 15 Norte 0 -- -- 25
2020-07-04 18:00:00 34.9 4 Noroeste 17 Noroeste 0 -- -- 26
2020-07-04 17:00:00 34.5 5 Noroeste 18 Este 0 -- -- 27
2020-07-04 16:00:00 34.1 4 Nordeste 18 Noroeste 0 -- -- 28
2020-07-04 15:00:00 33.3 2 Oeste 19 Norte 0 -- -- 30
2020-07-04 14:00:00 32.8 4 Oeste 16 Oeste 0 -- -- 34
2020-07-04 13:00:00 31.5 0 Calma 15 Nordeste 0 -- -- 38
2020-07-04 12:00:00 29.2 4 Nordeste 19 Este 0 -- -- 46
2020-07-04 11:00:00 26.7 9 Sudeste 17 Sudeste 0 -- -- 54
2020-07-04 10:00:00 24.2 10 Este 18 Este 0 -- -- 51
2020-07-04 09:00:00 21.3 8 Sudeste 12 Sudeste 0 -- -- 46
2020-07-04 08:00:00 19.4 6 Este 10 Este 0 -- -- 48
2020-07-04 07:00:00 15.8 3 Este 10 Este 0 -- -- 50
2020-07-04 06:00:00 17.9 8 Este 11 Este 0 -- -- 46
2020-07-04 05:00:00 17.8 5 Este 11 Este 0 -- -- 44
2020-07-04 04:00:00 17.7 3 Sudeste 10 Nordeste 0 -- -- 44
2020-07-04 03:00:00 19.5 3 Este 10 Este 0 -- -- 41
2020-07-04 02:00:00 19.6 9 Sudeste 18 Sudeste 0 -- -- 42
2020-07-04 01:00:00 20.2 2 Sudoeste 9 Oeste 0 -- -- 40
2020-07-04 00:00:00 21.1 2 Nordeste 11 Norte 0 -- -- 37
2020-07-03 23:00:00 21.9 0 Calma 6 Norte 0 -- -- 35
2020-07-03 22:00:00 26.3 0 Calma 5 Sur 0 -- -- 31
2020-07-03 21:00:00 32.2 3 Sur 15 Noroeste 0 -- -- 28
2020-07-03 20:00:00 32.8 3 Sudoeste 18 Norte 0 -- -- 27
2020-07-03 19:00:00 33 7 Noroeste 21 Norte 0 -- -- 27
2020-07-03 18:00:00 32.6 6 Noroeste 17 Oeste 0 -- -- 28
2020-07-03 17:00:00 32.2 9 Noroeste 21 Norte 0 -- -- 29
2020-07-03 16:00:00 31.8 8 Noroeste 18 Noroeste 0 -- -- 31
2020-07-03 15:00:00 31 6 Este 19 Noroeste 0 -- -- 33
2020-07-03 14:00:00 29.7 8 Oeste 19 Norte 0 -- -- 38
2020-07-03 13:00:00 29 6 Sudeste 18 Norte 0 -- -- 39
2020-07-03 12:00:00 27.4 8 Norte 19 Nordeste 0 -- -- 43
2020-07-03 11:00:00 25 6 Nordeste 16 Nordeste 0 -- -- 50
2020-07-03 10:00:00 22.5 8 Nordeste 18 Nordeste 0 -- -- 56
2020-07-03 09:00:00 20.2 8 Nordeste 18 Nordeste 0 -- -- 62
2020-07-03 08:00:00 17.6 9 Nordeste 20 Nordeste 0 -- -- 69
2020-07-03 07:00:00 16.3 12 Norte 19 Nordeste 0 -- -- 70
2020-07-03 06:00:00 17 4 Norte 19 Nordeste 0 -- -- 68
2020-07-03 05:00:00 18.4 8 Nordeste 20 Nordeste 0 -- -- 63
2020-07-03 04:00:00 19.4 8 Norte 14 Norte 0 -- -- 50
2020-07-03 03:00:00 19.9 0 Calma 10 Nordeste 0 -- -- 43
2020-07-03 02:00:00 22.4 5 Noroeste 12 Norte 0 -- -- 40
2020-07-03 01:00:00 22.4 7 Noroeste 12 Noroeste 0 -- -- 40
2020-07-03 00:00:00 25.2 6 Oeste 23 Noroeste 0 -- -- 37
2020-07-02 23:00:00 26.3 7 Oeste 23 Noroeste 0 -- -- 36
2020-07-02 22:00:00 27.8 11 Oeste 30 Oeste 0 -- -- 35
2020-07-02 21:00:00 30.2 14 Oeste 38 Noroeste 0 -- -- 32
2020-07-02 20:00:00 31.7 15 Noroeste 40 Oeste 0 -- -- 30
2020-07-02 19:00:00 32.4 18 Oeste 35 Noroeste 0 -- -- 28
2020-07-02 18:00:00 33.1 16 Noroeste 37 Oeste 0 -- -- 26
2020-07-02 17:00:00 32.8 15 Oeste 40 Noroeste 0 -- -- 26
2020-07-02 16:00:00 32.7 15 Oeste 36 Oeste 0 -- -- 29
2020-07-02 15:00:00 31.8 15 Oeste 36 Oeste 0 -- -- 32
2020-07-02 14:00:00 31.5 13 Oeste 35 Oeste 0 -- -- 32
2020-07-02 13:00:00 30.8 13 Oeste 39 Oeste 0 -- -- 35
2020-07-02 12:00:00 29.7 10 Oeste 27 Oeste 0 -- -- 39
2020-07-02 11:00:00 28 9 Sudoeste 22 Sudoeste 0 -- -- 44
2020-07-02 10:00:00 25.2 4 Sudoeste 9 Sudoeste 0 -- -- 47
2020-07-02 09:00:00 23.6 0 Calma -- -- 0 -- -- 49
2020-07-02 08:00:00 18.8 0 Calma -- -- 0 -- -- 55
2020-07-02 07:00:00 16.6 0 Calma 8 Oeste 0 -- -- 54
2020-07-02 06:00:00 17.6 0 Calma 8 Oeste 0 -- -- 53
2020-07-02 05:00:00 17.4 2 Noroeste 6 Noroeste 0 -- -- 50
2020-07-02 04:00:00 18.7 2 Noroeste 6 Noroeste 0 -- -- 47
2020-07-02 03:00:00 19.5 0 Calma 6 Noroeste 0 -- -- 44
2020-07-02 02:00:00 21.2 0 Calma -- -- 0 -- -- 40
2020-07-02 01:00:00 21.6 0 Calma -- -- 0 -- -- 38
2020-07-02 00:00:00 25.8 0 Calma 11 Noroeste 0 -- -- 34
2020-07-01 23:00:00 27.5 0 Calma 13 Noroeste 0 -- -- 32
2020-07-01 22:00:00 30.3 8 Noroeste 21 Oeste 0 -- -- 29
2020-07-01 21:00:00 32.9 11 Oeste 25 Oeste 0 -- -- 27
2020-07-01 20:00:00 33.6 11 Oeste 31 Oeste 0 -- -- 29
2020-07-01 19:00:00 34 11 Oeste 33 Oeste 0 -- -- 29
2020-07-01 18:00:00 33.8 12 Sudoeste 30 Oeste 0 -- -- 30
2020-07-01 17:00:00 33.6 13 Oeste 34 Sudoeste 0 -- -- 32
2020-07-01 16:00:00 31.9 13 Oeste 30 Oeste 0 -- -- 36
2020-07-01 15:00:00 33 13 Sudoeste 31 Sudoeste 0 -- -- 35
2020-07-01 14:00:00 32.6 11 Oeste 33 Sudoeste 0 -- -- 35
2020-07-01 13:00:00 31.8 12 Oeste 30 Sudoeste 0 -- -- 33
2020-07-01 12:00:00 31 12 Oeste 26 Sudoeste 0 -- -- 34
2020-07-01 11:00:00 29.3 9 Sudoeste 19 Oeste 0 -- -- 39
2020-07-01 10:00:00 27.3 8 Sudoeste 18 Oeste 0 -- -- 42
2020-07-01 09:00:00 25.2 0 Calma 6 Este 0 -- -- 46
2020-07-01 08:00:00 20.7 0 Calma 4 Este 0 -- -- 54
2020-07-01 07:00:00 18.5 2 Este 5 Este 0 -- -- 53
2020-07-01 06:00:00 21.7 0 Calma 8 Oeste 0 -- -- 49
2020-07-01 05:00:00 22.6 3 Oeste 12 Sudoeste 0 -- -- 46
2020-07-01 04:00:00 23.2 3 Oeste 7 Oeste 0 -- -- 45
2020-07-01 03:00:00 24.7 4 Oeste 13 Noroeste 0 -- -- 43
2020-07-01 02:00:00 23.5 3 Noroeste 8 Noroeste 0 -- -- 45
2020-07-01 01:00:00 23.8 3 Noroeste 6 Noroeste 0 -- -- 42
2020-07-01 00:00:00 27.1 4 Oeste 10 Noroeste 0 -- -- 38
2020-06-30 23:00:00 29 6 Noroeste 16 Noroeste 0 -- -- 34
2020-06-30 22:00:00 32.8 12 Noroeste 24 Oeste 0 -- -- 30
2020-06-30 21:00:00 34.9 9 Oeste 24 Sudoeste 0 -- -- 26
2020-06-30 20:00:00 36.6 9 Oeste 25 Oeste 0 -- -- 25
2020-06-30 19:00:00 37.8 10 Oeste 29 Oeste 0 -- -- 25
2020-06-30 18:00:00 38.4 8 Oeste 28 Noroeste 0 -- -- 26
2020-06-30 17:00:00 38 6 Oeste 28 Noroeste 0 -- -- 26
2020-06-30 16:00:00 37.4 9 Oeste 31 Oeste 0 -- -- 28
2020-06-30 15:00:00 36.4 7 Oeste 27 Noroeste 0 -- -- 28
2020-06-30 14:00:00 35.8 2 Sudoeste 23 Sudeste 0 -- -- 31
2020-06-30 13:00:00 34.4 3 Este 16 Este 0 -- -- 35
2020-06-30 12:00:00 32.1 0 Calma 15 Sudeste 0 -- -- 38
2020-06-30 11:00:00 29.7 9 Sudeste 18 Sudeste 0 -- -- 42
2020-06-30 10:00:00 27 12 Este 21 Sudeste 0 -- -- 48
2020-06-30 09:00:00 24.9 10 Sudeste 16 Sudeste 0 -- -- 52
2020-06-30 08:00:00 21.9 3 Este 10 Este 0 -- -- 60
2020-06-30 07:00:00 19.3 0 Calma 9 Este 0 -- -- 60
2020-06-30 06:00:00 21.8 4 Este 10 Nordeste 0 -- -- 54
2020-06-30 05:00:00 19.6 0 Calma -- -- 0 -- -- 51
2020-06-30 04:00:00 20.3 0 Calma 12 Sudeste 0 -- -- 47
2020-06-30 03:00:00 23 0 Calma 17 Sudeste 0 -- -- 43
2020-06-30 02:00:00 23.6 7 Este 13 Este 0 -- -- 41
2020-06-30 01:00:00 22.9 0 Calma -- -- 0 -- -- 40
2020-06-30 00:00:00 25 0 Calma -- -- 0 -- -- 37
2020-06-29 23:00:00 27.2 0 Calma 8 Noroeste 0 -- -- 34
2020-06-29 22:00:00 30.9 6 Noroeste 11 Noroeste 0 -- -- 31
2020-06-29 21:00:00 35.5 6 Oeste 22 Noroeste 0 -- -- 28
2020-06-29 20:00:00 36.4 7 Oeste 14 Este 0 -- -- 28
2020-06-29 19:00:00 36.6 4 Noroeste 19 Sudoeste 0 -- -- 28
2020-06-29 18:00:00 36.6 3 Sudoeste 22 Oeste 0 -- -- 29
2020-06-29 17:00:00 36 7 Oeste 20 Sudoeste 0 -- -- 30
2020-06-29 16:00:00 35.3 10 Oeste 23 Sudoeste 0 -- -- 31
2020-06-29 15:00:00 34.5 6 Sudoeste 22 Oeste 0 -- -- 33
2020-06-29 14:00:00 33.2 10 Sudoeste 21 Sudoeste 0 -- -- 35
2020-06-29 13:00:00 32.3 7 Sudoeste 17 Sudoeste 0 -- -- 38
2020-06-29 12:00:00 30.9 2 Oeste 10 Oeste 0 -- -- 41
2020-06-29 11:00:00 28.1 5 Noroeste 10 Noroeste 0 -- -- 45
2020-06-29 10:00:00 25.8 0 Calma 10 Sudeste 0 -- -- 47
2020-06-29 09:00:00 22.6 7 Este 13 Sudeste 0 -- -- 51
2020-06-29 08:00:00 19.1 0 Calma 10 Sudeste 0 -- -- 57
2020-06-29 07:00:00 17 0 Calma 13 Este 0 -- -- 59
2020-06-29 06:00:00 17.5 5 Este 6 Este 0 -- -- 58
2020-06-29 05:00:00 17.2 0 Calma 6 Noroeste 0 -- -- 56
2020-06-29 04:00:00 18.2 0 Calma -- -- 0 -- -- 53
2020-06-29 03:00:00 20.1 0 Calma 5 Sudeste 0 -- -- 50
2020-06-29 02:00:00 20.5 0 Calma 5 Noroeste 0 -- -- 47
2020-06-29 01:00:00 22.2 0 Calma 7 Noroeste 0 -- -- 42
2020-06-29 00:00:00 22.9 3 Noroeste 5 Noroeste 0 -- -- 38
2020-06-28 23:00:00 25.7 0 Calma 6 Noroeste 0 -- -- 35
2020-06-28 22:00:00 29.6 5 Noroeste 13 Noroeste 0 -- -- 32
2020-06-28 21:00:00 33.6 8 Noroeste 18 Oeste 0 -- -- 29
2020-06-28 20:00:00 34.6 7 Oeste 18 Noroeste 0 -- -- 29
2020-06-28 19:00:00 35.1 7 Oeste 22 Noroeste 0 -- -- 29
2020-06-28 18:00:00 35.1 7 Noroeste 24 Sudoeste 0 -- -- 30
2020-06-28 17:00:00 34.1 9 Oeste 19 Oeste 0 -- -- 32
2020-06-28 16:00:00 33 9 Sudoeste 19 Sudoeste 0 -- -- 35
2020-06-28 15:00:00 32.2 5 Oeste 22 Sudoeste 0 -- -- 36
2020-06-28 14:00:00 31.2 7 Oeste 21 Noroeste 0 -- -- 38
2020-06-28 13:00:00 30 8 Oeste 22 Noroeste 0 -- -- 40
2020-06-28 12:00:00 29.3 6 Sudoeste 13 Oeste 0 -- -- 44
2020-06-28 11:00:00 27.6 4 Sudeste 9 Oeste 0 -- -- 46
2020-06-28 10:00:00 24.5 0 Calma 5 Oeste 0 -- -- 52
2020-06-28 09:00:00 22.4 0 Calma 7 Sudeste 0 -- -- 57
2020-06-28 08:00:00 18.9 6 Este 8 Sudeste 0 -- -- 64
2020-06-28 07:00:00 16 3 Noroeste 6 Noroeste 0 -- -- 66
2020-06-28 06:00:00 16.8 3 Norte 8 Noroeste 0 -- -- 63
2020-06-28 05:00:00 17.8 3 Noroeste 5 Noroeste 0 -- -- 59
2020-06-28 04:00:00 18.9 4 Oeste 7 Oeste 0 -- -- 55
2020-06-28 03:00:00 21.8 4 Oeste 11 Oeste 0 -- -- 52
2020-06-28 02:00:00 21.7 3 Sudoeste 9 Oeste 0 -- -- 51
2020-06-28 01:00:00 23.2 2 Oeste 11 Noroeste 0 -- -- 48
2020-06-28 00:00:00 25.7 8 Noroeste 17 Noroeste 0 -- -- 43
2020-06-27 23:00:00 26.8 7 Oeste 15 Oeste 0 -- -- 40
2020-06-27 22:00:00 27.6 3 Oeste 10 Sudoeste 0 -- -- 39
2020-06-27 21:00:00 30.6 6 Oeste 20 Oeste 0 -- -- 35
2020-06-27 20:00:00 31.5 9 Oeste 25 Sudoeste 0 -- -- 35
2020-06-27 19:00:00 31.9 9 Oeste 25 Sudoeste 0 -- -- 35
2020-06-27 18:00:00 31.8 10 Sudoeste 30 Sudoeste 0 -- -- 35
2020-06-27 17:00:00 31.5 7 Sudoeste 24 Sudoeste 0 -- -- 36
2020-06-27 16:00:00 30.7 9 Sudoeste 25 Sudoeste 0 -- -- 38
2020-06-27 15:00:00 30.1 9 Sudoeste 41 Oeste 0 -- -- 40
2020-06-27 14:00:00 29 8 Sudoeste 25 Sudoeste 0 -- -- 41
2020-06-27 13:00:00 27.9 8 Sudoeste 23 Sudoeste 0 -- -- 43
2020-06-27 12:00:00 26.4 8 Sudoeste 18 Sudoeste 0 -- -- 45
2020-06-27 11:00:00 24.8 7 Sudoeste 19 Sudoeste 0 -- -- 48
2020-06-27 10:00:00 22.7 2 Sudoeste 8 Sudoeste 0 -- -- 49
2020-06-27 09:00:00 20.1 4 Sudeste 7 Sudeste 0 -- -- 50
2020-06-27 08:00:00 16.8 0 Calma -- -- 0 -- -- 53
2020-06-27 07:00:00 14 0 Calma -- -- 0 -- -- 54
2020-06-27 06:00:00 13.8 0 Calma 5 Norte 0 -- -- 52
2020-06-27 05:00:00 14.3 0 Calma 5 Este 0 -- -- 50
2020-06-27 04:00:00 15.6 0 Calma 6 Este 0 -- -- 47
2020-06-27 03:00:00 16.3 0 Calma 7 Noroeste 0 -- -- 45
2020-06-27 02:00:00 16.8 0 Calma 4 Norte 0 -- -- 43
2020-06-27 01:00:00 18.5 0 Calma 8 Noroeste 0 -- -- 40
2020-06-27 00:00:00 21.6 4 Noroeste 13 Oeste 0 -- -- 35
2020-06-26 23:00:00 24.6 8 Noroeste 27 Noroeste 0 -- -- 33
2020-06-26 22:00:00 26.9 15 Noroeste 30 Noroeste 0 -- -- 33
2020-06-26 21:00:00 28.1 15 Noroeste 26 Oeste 0 -- -- 32
2020-06-26 20:00:00 29.7 13 Oeste 29 Oeste 0 -- -- 32
2020-06-26 19:00:00 30.9 10 Oeste 36 Noroeste 0 -- -- 32
2020-06-26 18:00:00 30.7 12 Oeste 31 Noroeste 0 -- -- 33
2020-06-26 17:00:00 31.9 12 Oeste 34 Noroeste 0 -- -- 33
2020-06-26 16:00:00 31.2 4 Oeste 23 Noroeste 0 -- -- 35
2020-06-26 15:00:00 30.9 9 Oeste 31 Oeste 0 -- -- 36
2020-06-26 14:00:00 30.3 9 Oeste 25 Oeste 0 -- -- 37
2020-06-26 13:00:00 29.8 5 Sudoeste -- -- -- -- -- 38
2020-06-26 12:00:00 28.7 7 Sudoeste 22 Sudoeste 0 -- -- 40
2020-06-26 11:00:00 27.1 8 Sudoeste 17 Oeste 0 -- -- 44
2020-06-26 10:00:00 26.3 3 Sudoeste 12 Sudeste 0 -- -- 46
2020-06-26 09:00:00 23.2 10 Este 17 Sudeste 0 -- -- 48
2020-06-26 08:00:00 20.5 7 Este 13 Sudeste 0 -- -- 51
2020-06-26 07:00:00 19.6 4 Este 12 Sudeste 0 -- -- 50
2020-06-26 06:00:00 20.1 7 Este 12 Este 0 -- -- 48
2020-06-26 05:00:00 21.1 8 Este 13 Este 0 -- -- 46
2020-06-26 04:00:00 22.1 8 Sudeste 21 Sudeste 0 -- -- 42
2020-06-26 03:00:00 24 11 Sudeste 20 Sudeste 0 -- -- 40
2020-06-26 02:00:00 22.7 4 Sudeste 13 Sudeste 0 -- -- 47
2020-06-26 01:00:00 22.7 3 Norte 5 Norte 0 -- -- 44
2020-06-26 00:00:00 25.8 0 Calma 7 Noroeste 0 -- -- 40
2020-06-25 23:00:00 27.7 5 Noroeste 13 Noroeste 0 -- -- 37
2020-06-25 22:00:00 30.1 7 Noroeste 26 Oeste 0 -- -- 33
2020-06-25 21:00:00 32.9 15 Noroeste 27 Noroeste 0 -- -- 31
2020-06-25 20:00:00 34.5 9 Oeste 24 Noroeste 0 -- -- 31
2020-06-25 19:00:00 35 7 Oeste 24 Oeste 0 -- -- 31
2020-06-25 18:00:00 34.8 10 Sudoeste 27 Sudoeste 0 -- -- 31
2020-06-25 17:00:00 35 7 Oeste 21 Oeste 0 -- -- 31
2020-06-25 16:00:00 35.5 4 Sur 20 Este 0 -- -- 31
2020-06-25 15:00:00 34.3 4 Sudeste 15 Este 0 -- -- 34
2020-06-25 14:00:00 32.8 3 Sudoeste 15 Sudoeste 0 -- -- 35
2020-06-25 13:00:00 31.6 4 Oeste 15 Oeste 0 -- -- 38
2020-06-25 12:00:00 30.8 5 Sur 13 Sudeste 0 -- -- 39
2020-06-25 11:00:00 28.6 3 Sudoeste 18 Sudeste 0 -- -- 42
2020-06-25 10:00:00 27 9 Sudeste 20 Sudeste 0 -- -- 46
2020-06-25 09:00:00 24 10 Sudeste 17 Sudeste 0 -- -- 49
2020-06-25 08:00:00 21.9 10 Sudeste 24 Sudeste 0 -- -- 52
2020-06-25 07:00:00 20.8 6 Sudeste 22 Este 0 -- -- 53
2020-06-25 06:00:00 21.4 18 Sudeste 27 Este 0 -- -- 52
2020-06-25 05:00:00 22.5 15 Este 29 Sudeste 0 -- -- 51
2020-06-25 04:00:00 23 13 Este 26 Sudeste 0 -- -- 48
2020-06-25 03:00:00 24.1 19 Sudeste 33 Sudeste 0 -- -- 46
2020-06-25 02:00:00 24.5 13 Sudeste 22 Sudeste 0 -- -- 46
2020-06-25 01:00:00 25.1 13 Sudeste 24 Sudeste 0 -- -- 40
2020-06-25 00:00:00 27.6 16 Sudeste 26 Sudeste 0 -- -- 36
2020-06-24 23:00:00 28.4 11 Este 29 Sudeste 0 -- -- 35
2020-06-24 22:00:00 28.2 0 Calma 15 Sudeste 0 -- -- 32
2020-06-24 21:00:00 32.4 3 Sudeste 9 Sudeste 0 -- -- 30
2020-06-24 20:00:00 34.5 4 Sudeste 19 Sur 0 -- -- 28
2020-06-24 19:00:00 34.5 10 Sudeste 26 Sudeste 0 -- -- 27
2020-06-24 18:00:00 34.1 5 Sudeste 20 Sudeste 0 -- -- 29
2020-06-24 17:00:00 34.1 4 Este 29 Este 0 -- -- 32
2020-06-24 16:00:00 32.3 16 Este 36 Este 0 -- -- 35
2020-06-24 15:00:00 27.7 18 Este 29 Este 0.2 -- -- 46
2020-06-24 14:00:00 26.9 17 Este 33 Sudeste 0 -- -- 46
2020-06-24 13:00:00 26.2 7 Sur 27 Sudoeste 0 -- -- 46
2020-06-24 12:00:00 24.4 6 Nordeste 16 Nordeste 0 -- -- 50
2020-06-24 11:00:00 25.7 6 Sur 13 Sudeste 0 -- -- 45
2020-06-24 10:00:00 27.2 5 Sudeste 12 Sudeste 0 -- -- 43
2020-06-24 09:00:00 25.5 3 Nordeste 10 Este 0 -- -- 48
2020-06-24 08:00:00 23 3 Este 21 Sudeste 0 -- -- 53
2020-06-24 07:00:00 22.2 15 Sudeste 29 Sudeste 0 -- -- 52
2020-06-24 06:00:00 23.5 14 Este 35 Sudeste 0 -- -- 48
2020-06-24 05:00:00 24.5 4 Sur 17 Nordeste 0 -- -- 46
2020-06-24 04:00:00 25.4 6 Nordeste 28 Este 0 -- -- 43
2020-06-24 03:00:00 25.9 9 Este 30 Este 0 -- -- 42
2020-06-24 02:00:00 26.6 5 Nordeste 30 Este 0 -- -- 39
2020-06-24 01:00:00 28.2 17 Sudeste 26 Sudeste 0 -- -- 35
2020-06-24 00:00:00 29.4 11 Este 21 Sudeste 0 -- -- 32
2020-06-23 23:00:00 30.1 12 Este 18 Sudeste 0 -- -- 30
2020-06-23 22:00:00 30.3 0 Calma 4 Oeste 0 -- -- 28
2020-06-23 21:00:00 35.8 3 Oeste 9 Noroeste 0 -- -- 25
2020-06-23 20:00:00 37 4 Sudoeste 14 Sudeste 0 -- -- 24
2020-06-23 19:00:00 37.2 6 Sudeste 22 Este 0 -- -- 24
2020-06-23 18:00:00 37.2 7 Sudoeste 18 Sudoeste 0 -- -- 24
2020-06-23 17:00:00 37.6 6 Noroeste 21 Sudoeste 0 -- -- 24
2020-06-23 16:00:00 36.3 5 Sudeste 20 Sudeste 0 -- -- 26
2020-06-23 15:00:00 35.3 7 Sudeste 21 Este 0 -- -- 28
2020-06-23 14:00:00 34.1 3 Sudeste 22 Este 0 -- -- 31
2020-06-23 13:00:00 32.1 5 Nordeste 21 Sudeste 0 -- -- 34
2020-06-23 12:00:00 30.4 4 Este 18 Este 0 -- -- 37
2020-06-23 11:00:00 27.9 7 Sudeste 20 Este 0 -- -- 41
2020-06-23 10:00:00 25.6 10 Sudeste 21 Sudeste 0 -- -- 46
2020-06-23 09:00:00 23.4 10 Sudeste 15 Sudeste 0 -- -- 52
2020-06-23 08:00:00 21.5 5 Este 9 Este 0 -- -- 56
2020-06-23 07:00:00 20.2 4 Nordeste 10 Nordeste 0 -- -- 56
2020-06-23 06:00:00 19.9 4 Este 12 Este 0 -- -- 56
2020-06-23 05:00:00 21.8 3 Nordeste 17 Sudeste 0 -- -- 51
2020-06-23 04:00:00 22.1 5 Este 21 Sudeste 0 -- -- 49
2020-06-23 03:00:00 22.9 13 Sudeste 26 Sudeste 0 -- -- 46
2020-06-23 02:00:00 23.6 14 Sudeste 25 Sudeste 0 -- -- 42
2020-06-23 01:00:00 23.9 6 Este 21 Sudeste 0 -- -- 36
2020-06-23 00:00:00 25.9 6 Este 8 Este 0 -- -- 31
2020-06-22 23:00:00 28.1 0 Calma 13 Nordeste 0 -- -- 29
2020-06-22 22:00:00 30.8 6 Nordeste 12 Nordeste 0 -- -- 26
2020-06-22 21:00:00 34.8 4 Norte 13 Noroeste 0 -- -- 23
2020-06-22 20:00:00 35.5 0 Calma 19 Noroeste 0 -- -- 24
2020-06-22 19:00:00 36.3 6 Noroeste 14 Noroeste 0 -- -- 23
2020-06-22 18:00:00 36.1 5 Oeste 18 Oeste 0 -- -- 24
2020-06-22 17:00:00 35.7 5 Oeste 17 Oeste 0 -- -- 25
2020-06-22 16:00:00 35.4 2 Nordeste 24 Oeste 0 -- -- 24
2020-06-22 15:00:00 34.2 6 Este 24 Sudeste 0 -- -- 28
2020-06-22 14:00:00 33.2 6 Sudeste 21 Este 0 -- -- 31
2020-06-22 13:00:00 31.4 5 Sudeste 18 Sudeste 0 -- -- 35
2020-06-22 12:00:00 29.5 6 Sudeste 22 Sudeste 0 -- -- 38
2020-06-22 11:00:00 28.1 4 Este 15 Sudeste 0 -- -- 40
2020-06-22 10:00:00 25.2 5 Nordeste 15 Nordeste 0 -- -- 46
2020-06-22 09:00:00 22.3 8 Norte 17 Nordeste 0 -- -- 51
2020-06-22 08:00:00 18.3 0 Calma 8 Norte 0 -- -- 58
2020-06-22 07:00:00 15.6 0 Calma 6 Este 0 -- -- 63
2020-06-22 06:00:00 16.3 0 Calma 8 Nordeste 0 -- -- 56
2020-06-22 05:00:00 16.8 3 Noroeste 6 Sudeste 0 -- -- 52
2020-06-22 04:00:00 19.2 2 Sudeste 14 Nordeste 0 -- -- 44
2020-06-22 03:00:00 21.8 8 Nordeste 14 Nordeste 0 -- -- 40
2020-06-22 02:00:00 23 0 Calma 16 Nordeste 0 -- -- 35
2020-06-22 01:00:00 23.2 2 Este 12 Nordeste 0 -- -- 33
2020-06-22 00:00:00 25 7 Norte 14 Norte 0 -- -- 30
2020-06-21 23:00:00 24 2 Sudoeste 6 Noroeste 0 -- -- 27
2020-06-21 22:00:00 26.7 4 Noroeste 5 Noroeste 0 -- -- 24
2020-06-21 21:00:00 33.4 3 Oeste 13 Oeste 0 -- -- 21
2020-06-21 20:00:00 34.6 7 Noroeste 21 Noroeste 0 -- -- 20
2020-06-21 19:00:00 34.7 12 Noroeste 20 Oeste 0 -- -- 21
2020-06-21 18:00:00 34.6 4 Sudoeste 20 Sudoeste 0 -- -- 23
2020-06-21 17:00:00 34.3 7 Oeste 20 Sudoeste 0 -- -- 24
2020-06-21 16:00:00 33.3 7 Sudoeste 22 Sudoeste 0 -- -- 25
2020-06-21 15:00:00 32.4 6 Oeste 20 Sudoeste 0 -- -- 27
2020-06-21 14:00:00 31.4 6 Sudoeste 20 Oeste 0 -- -- 28
2020-06-21 13:00:00 30.6 7 Sudoeste 20 Oeste 0 -- -- 30
2020-06-21 12:00:00 29.6 2 Sudoeste 9 Norte 0 -- -- 33
2020-06-21 11:00:00 27 4 Oeste 11 Oeste 0 -- -- 37
2020-06-21 10:00:00 23.7 3 Oeste 7 Sudoeste 0 -- -- 42
2020-06-21 09:00:00 20.5 3 Sudeste 6 Sudeste 0 -- -- 48
2020-06-21 08:00:00 17.2 0 Calma 8 Este 0 -- -- 53
2020-06-21 07:00:00 13.3 0 Calma 7 Este 0 -- -- 57
2020-06-21 06:00:00 15.5 4 Este 8 Sudeste 0 -- -- 54
2020-06-21 05:00:00 15.3 4 Noroeste 8 Noroeste 0 -- -- 52
2020-06-21 04:00:00 16.4 2 Norte 6 Noroeste 0 -- -- 50
2020-06-21 03:00:00 17.4 4 Noroeste 7 Noroeste 0 -- -- 46
2020-06-21 02:00:00 20.5 3 Oeste 7 Noroeste 0 -- -- 40
2020-06-21 01:00:00 20 0 Calma 6 Norte 0 -- -- 37
2020-06-21 00:00:00 20 0 Calma 5 Sudeste 0 -- -- 34
2020-06-20 23:00:00 24 0 Calma 8 Oeste 0 -- -- 28
2020-06-20 22:00:00 27.4 6 Noroeste 21 Noroeste 0 -- -- 25
2020-06-20 21:00:00 31 9 Oeste 26 Oeste 0 -- -- 22
2020-06-20 20:00:00 32.3 9 Oeste 26 Noroeste 0 -- -- 22
2020-06-20 19:00:00 32.9 6 Oeste 21 Sudoeste 0 -- -- 23
2020-06-20 18:00:00 32.8 10 Oeste 25 Oeste 0 -- -- 23
2020-06-20 17:00:00 32.6 8 Oeste 28 Sudoeste 0 -- -- 24
2020-06-20 16:00:00 32.1 8 Oeste 23 Oeste 0 -- -- 25
2020-06-20 15:00:00 31.3 6 Oeste 26 Oeste 0 -- -- 25
2020-06-20 14:00:00 30.3 6 Sudoeste 27 Oeste 0 -- -- 27
2020-06-20 13:00:00 29.2 8 Sudoeste 26 Sudoeste 0 -- -- 28
2020-06-20 12:00:00 27.9 5 Sudoeste 13 Sudoeste 0 -- -- 32
2020-06-20 11:00:00 25.4 5 Oeste 12 Oeste 0 -- -- 36
2020-06-20 10:00:00 23.2 0 Calma 11 Sudeste 0 -- -- 41
2020-06-20 09:00:00 18.7 9 Sudeste 14 Sudeste 0 -- -- 48
2020-06-20 08:00:00 15.2 8 Este 11 Este 0 -- -- 55
2020-06-20 07:00:00 12.1 0 Calma 5 Noroeste 0 -- -- 59
2020-06-20 06:00:00 12.8 2 Norte 6 Noroeste 0 -- -- 55
2020-06-20 05:00:00 13.4 4 Norte 6 Norte 0 -- -- 52
2020-06-20 04:00:00 14.7 4 Noroeste 7 Noroeste 0 -- -- 47
2020-06-20 03:00:00 18.1 4 Oeste 12 Oeste 0 -- -- 40
2020-06-20 02:00:00 19.7 6 Oeste 11 Noroeste 0 -- -- 39
2020-06-20 01:00:00 18.5 0 Calma 10 Oeste 0 -- -- 40
2020-06-20 00:00:00 20.6 0 Calma 6 Noroeste 0 -- -- 35
2020-06-19 23:00:00 22.9 4 Noroeste 11 Noroeste 0 -- -- 31
2020-06-19 22:00:00 25.9 8 Noroeste 19 Noroeste 0 -- -- 27
2020-06-19 21:00:00 29.4 8 Oeste 20 Oeste 0 -- -- 25
2020-06-19 20:00:00 30.8 7 Oeste 23 Oeste 0 -- -- 24
2020-06-19 19:00:00 30.9 10 Oeste 30 Oeste 0 -- -- 26
2020-06-19 18:00:00 31.1 8 Sudoeste 24 Oeste 0 -- -- 25
2020-06-19 17:00:00 30.7 7 Oeste 27 Oeste 0 -- -- 27
2020-06-19 16:00:00 29.7 11 Oeste 30 Oeste 0 -- -- 28
2020-06-19 15:00:00 29.2 9 Oeste 27 Sudoeste 0 -- -- 29
2020-06-19 14:00:00 28.2 8 Oeste 29 Oeste 0 -- -- 32
2020-06-19 13:00:00 27.4 7 Sudoeste 17 Oeste 0 -- -- 38
2020-06-19 12:00:00 25.9 4 Oeste 14 Este 0 -- -- 46
2020-06-19 11:00:00 24.3 4 Sur 17 Sudeste 0 -- -- 52
2020-06-19 10:00:00 22.7 5 Este 15 Sudeste 0 -- -- 62
2020-06-19 09:00:00 19.9 7 Este 10 Este 0 -- -- 70
2020-06-19 08:00:00 16.8 5 Sudeste 11 Sudeste 0 -- -- 74
2020-06-19 07:00:00 14.4 0 Calma 9 Este 0 -- -- 70
2020-06-19 06:00:00 13.8 4 Sudeste 8 Este 0 -- -- 65
2020-06-19 05:00:00 14.6 3 Este 7 Este 0 -- -- 61
2020-06-19 04:00:00 15.1 4 Este 12 Sudeste 0 -- -- 57
2020-06-19 03:00:00 15.1 0 Calma 8 Noroeste 0 -- -- 56
2020-06-19 02:00:00 16.1 0 Calma -- -- 0 -- -- 49
2020-06-19 01:00:00 17.7 0 Calma 5 Nordeste 0 -- -- 43
2020-06-19 00:00:00 19.6 0 Calma 7 Noroeste 0 -- -- 39
2020-06-18 23:00:00 21.8 5 Noroeste 12 Noroeste 0 -- -- 32
2020-06-18 22:00:00 25.1 8 Noroeste 26 Oeste 0 -- -- 29
2020-06-18 21:00:00 28.1 8 Oeste 21 Oeste 0 -- -- 29
2020-06-18 20:00:00 27.5 6 Sudoeste 18 Oeste 0 -- -- 30
2020-06-18 19:00:00 28.3 10 Oeste 29 Noroeste 0 -- -- 29
2020-06-18 18:00:00 28.5 6 Oeste 23 Noroeste 0 -- -- 28
2020-06-18 17:00:00 28.6 11 Oeste 23 Sudoeste 0 -- -- 28
2020-06-18 16:00:00 28 7 Oeste 25 Sudoeste 0 -- -- 29
2020-06-18 15:00:00 26.8 8 Sudoeste 21 Sudoeste 0 -- -- 32
2020-06-18 14:00:00 25.8 8 Sudoeste 25 Oeste 0 -- -- 32
2020-06-18 13:00:00 25 9 Oeste 26 Noroeste 0 -- -- 35
2020-06-18 12:00:00 24 5 Oeste 13 Oeste 0 -- -- 38
2020-06-18 11:00:00 22.5 0 Calma 8 Sudoeste 0 -- -- 43
2020-06-18 10:00:00 19.7 2 Sur 7 Sudoeste 0 -- -- 49
2020-06-18 09:00:00 17.4 0 Calma 8 Sudeste 0 -- -- 53
2020-06-18 08:00:00 14.7 0 Calma 8 Este 0 -- -- 62
2020-06-18 07:00:00 10.4 0 Calma 7 Noroeste 0 -- -- 69
2020-06-18 06:00:00 11.4 0 Calma 5 Norte 0 -- -- 63
2020-06-18 05:00:00 12.6 3 Norte 5 Norte 0 -- -- 60
2020-06-18 04:00:00 14.3 4 Noroeste 9 Oeste 0 -- -- 53
2020-06-18 03:00:00 16.8 4 Noroeste 7 Noroeste 0 -- -- 49
2020-06-18 02:00:00 17.7 2 Oeste 10 Oeste 0 -- -- 44
2020-06-18 01:00:00 18 5 Oeste 9 Noroeste 0 -- -- 43
2020-06-18 00:00:00 19.1 0 Calma 4 Noroeste 0 -- -- 41
2020-06-17 23:00:00 19.5 2 Oeste 8 Noroeste 0 -- -- 37
2020-06-17 22:00:00 21.9 3 Noroeste 14 Oeste 0 -- -- 30
2020-06-17 21:00:00 24.5 8 Oeste 21 Oeste 0 -- -- 26
2020-06-17 20:00:00 26.2 9 Oeste 28 Noroeste 0 -- -- 26
2020-06-17 19:00:00 26.2 10 Oeste 28 Sudoeste 0 -- -- 24
2020-06-17 18:00:00 26.5 8 Sudoeste 22 Noroeste 0 -- -- 26
2020-06-17 17:00:00 26.3 8 Sudoeste 27 Sudoeste 0 -- -- 28
2020-06-17 16:00:00 25.7 8 Sudoeste 28 Oeste 0 -- -- 29
2020-06-17 15:00:00 25.4 5 Oeste 20 Oeste 0 -- -- 31
2020-06-17 14:00:00 23.8 3 Sur 19 Sudoeste 0 -- -- 34
2020-06-17 13:00:00 23.1 4 Oeste 17 Noroeste 0 -- -- 37
2020-06-17 12:00:00 22.4 4 Sudeste 11 Sudeste 0 -- -- 39
2020-06-17 11:00:00 20.5 3 Oeste 9 Oeste 0 -- -- 46
2020-06-17 10:00:00 18.6 3 Noroeste 10 Noroeste 0 -- -- 52
2020-06-17 09:00:00 15.9 4 Oeste 8 Oeste 0 -- -- 63
2020-06-17 08:00:00 13.8 3 Sudoeste 7 Oeste 0 -- -- 71
2020-06-17 07:00:00 11.7 0 Calma 9 Noroeste 0 -- -- 77
2020-06-17 06:00:00 12.6 5 Noroeste 12 Noroeste 0 -- -- 73
2020-06-17 05:00:00 13.4 5 Noroeste 10 Noroeste 0 -- -- 76
2020-06-17 04:00:00 13.9 3 Oeste 6 Oeste 0 -- -- 88
2020-06-17 03:00:00 14.8 0 Calma 5 Este 0 -- -- 87
2020-06-17 02:00:00 15.7 0 Calma 4 Norte 0 -- -- 85
2020-06-17 01:00:00 16.4 0 Calma 8 Sudeste 0 -- -- 81
2020-06-17 00:00:00 16.8 3 Sudeste 13 Nordeste 0 -- -- 81
2020-06-16 23:00:00 16.5 5 Este 10 Sudeste 0 -- -- 82
2020-06-16 22:00:00 17.5 0 Calma 23 Noroeste 2.7 -- -- 79
2020-06-16 21:00:00 19.3 6 Noroeste 45 Noroeste 0.2 -- -- 56
2020-06-16 20:00:00 21.3 7 Norte 33 Noroeste 0.2 -- -- 48
2020-06-16 19:00:00 25.2 7 Oeste 22 Noroeste 0 -- -- 33
2020-06-16 18:00:00 25.9 8 Noroeste 28 Oeste 0 -- -- 32
2020-06-16 17:00:00 25.9 12 Noroeste 30 Noroeste 0 -- -- 32
2020-06-16 16:00:00 26.5 11 Noroeste 31 Oeste 0 -- -- 32
2020-06-16 15:00:00 26.1 14 Noroeste 31 Oeste 0 -- -- 33
2020-06-16 14:00:00 24.4 13 Oeste 32 Oeste 0 -- -- 36
2020-06-16 13:00:00 23.2 9 Noroeste 27 Noroeste 0 -- -- 41
2020-06-16 12:00:00 22.5 7 Oeste 25 Noroeste 0 -- -- 43
2020-06-16 11:00:00 20.9 8 Oeste 18 Noroeste 0 -- -- 46
2020-06-16 10:00:00 20 4 Sudoeste 9 Noroeste 0 -- -- 49
2020-06-16 09:00:00 17.4 0 Calma 6 Oeste 0 -- -- 62
2020-06-16 08:00:00 14.3 0 Calma 4 Noroeste 0 -- -- 73
2020-06-16 07:00:00 11.6 2 Norte 5 Noroeste 0 -- -- 73
2020-06-16 06:00:00 12.3 4 Noroeste 5 Noroeste 0 -- -- 69
2020-06-16 05:00:00 13.9 3 Noroeste 7 Norte 0 -- -- 63
2020-06-16 04:00:00 15.8 4 Oeste 9 Norte 0 -- -- 56
2020-06-16 03:00:00 17.4 5 Norte 12 Noroeste 0 -- -- 52
2020-06-16 02:00:00 17.7 6 Noroeste 11 Noroeste 0 -- -- 52
2020-06-16 01:00:00 17.9 0 Calma 8 Oeste 0 -- -- 47
2020-06-16 00:00:00 19.6 5 Oeste 9 Oeste 0 -- -- 40
2020-06-15 23:00:00 21.2 4 Noroeste 18 Noroeste 0 -- -- 36
2020-06-15 22:00:00 23.4 10 Noroeste 21 Oeste 0 -- -- 31
2020-06-15 21:00:00 25.7 10 Oeste 29 Oeste 0 -- -- 27
2020-06-15 20:00:00 26.9 15 Oeste 31 Noroeste 0 -- -- 24
2020-06-15 19:00:00 28.2 14 Oeste 30 Noroeste 0 -- -- 24
2020-06-15 18:00:00 28.7 9 Oeste 26 Sudoeste 0 -- -- 25
2020-06-15 17:00:00 27.8 10 Oeste 31 Sudoeste 0 -- -- 27
2020-06-15 16:00:00 27.4 10 Oeste 27 Oeste 0 -- -- 27
2020-06-15 15:00:00 26.4 9 Sudoeste 29 Sudoeste 0 -- -- 28
2020-06-15 14:00:00 25.2 9 Oeste 25 Oeste 0 -- -- 31
2020-06-15 13:00:00 24.1 8 Oeste 20 Oeste 0 -- -- 35
2020-06-15 12:00:00 22.6 8 Sudoeste 21 Sudoeste 0 -- -- 41
2020-06-15 11:00:00 21.7 9 Oeste 21 Oeste 0 -- -- 44
2020-06-15 10:00:00 19.6 4 Oeste 12 Sudoeste 0 -- -- 51
2020-06-15 09:00:00 17.9 2 Sudoeste 6 Sudoeste 0 -- -- 54
2020-06-15 08:00:00 13.4 0 Calma 3 Norte 0 -- -- 73
2020-06-15 07:00:00 9.9 0 Calma 5 Noroeste 0 -- -- 76
2020-06-15 06:00:00 10.6 0 Calma 6 Norte 0 -- -- 74
2020-06-15 05:00:00 10.5 3 Norte 5 Noroeste 0 -- -- 71
2020-06-15 04:00:00 12 3 Noroeste 7 Noroeste 0 -- -- 65
2020-06-15 03:00:00 13.9 5 Noroeste 8 Noroeste 0 -- -- 57
2020-06-15 02:00:00 16.4 2 Oeste 8 Oeste 0 -- -- 50
2020-06-15 01:00:00 17.2 4 Noroeste 9 Oeste 0 -- -- 44
2020-06-15 00:00:00 19.9 5 Oeste 16 Oeste 0 -- -- 38